sensor_id;sensor_type;location;lat;lon;timestamp;temperature;humidity
7362;DHT22;3721;44.490;11.220;2022-10-31T00:01:34;18.10;93.30
7362;DHT22;3721;44.490;11.220;2022-10-31T00:04:00;18.10;93.10
7362;DHT22;3721;44.490;11.220;2022-10-31T00:06:26;18.10;93.00
7362;DHT22;3721;44.490;11.220;2022-10-31T00:08:57;18.10;93.00
7362;DHT22;3721;44.490;11.220;2022-10-31T00:11:23;18.00;92.90
7362;DHT22;3721;44.490;11.220;2022-10-31T00:13:49;18.00;93.00
7362;DHT22;3721;44.490;11.220;2022-10-31T00:16:19;17.90;93.00
7362;DHT22;3721;44.490;11.220;2022-10-31T00:18:50;17.90;93.00
7362;DHT22;3721;44.490;11.220;2022-10-31T00:21:16;17.90;93.00
7362;DHT22;3721;44.490;11.220;2022-10-31T00:23:41;17.80;92.90
7362;DHT22;3721;44.490;11.220;2022-10-31T00:26:07;17.80;93.00
7362;DHT22;3721;44.490;11.220;2022-10-31T00:28:33;17.80;93.00
7362;DHT22;3721;44.490;11.220;2022-10-31T00:31:00;17.70;93.10
7362;DHT22;3721;44.490;11.220;2022-10-31T00:33:26;17.70;93.10
7362;DHT22;3721;44.490;11.220;2022-10-31T00:35:52;17.70;93.20
7362;DHT22;3721;44.490;11.220;2022-10-31T00:38:18;17.70;93.20
7362;DHT22;3721;44.490;11.220;2022-10-31T00:40:43;17.70;93.10
7362;DHT22;3721;44.490;11.220;2022-10-31T00:43:09;17.70;93.10
7362;DHT22;3721;44.490;11.220;2022-10-31T00:45:35;17.70;93.10
7362;DHT22;3721;44.490;11.220;2022-10-31T00:48:00;17.70;93.10
7362;DHT22;3721;44.490;11.220;2022-10-31T00:50:26;17.70;93.00
7362;DHT22;3721;44.490;11.220;2022-10-31T00:52:52;17.70;93.00
7362;DHT22;3721;44.490;11.220;2022-10-31T00:55:17;17.60;93.00
7362;DHT22;3721;44.490;11.220;2022-10-31T00:57:46;17.60;93.00
7362;DHT22;3721;44.490;11.220;2022-10-31T01:00:12;17.50;92.90
7362;DHT22;3721;44.490;11.220;2022-10-31T01:02:37;17.50;93.00
7362;DHT22;3721;44.490;11.220;2022-10-31T01:05:03;17.40;93.00
7362;DHT22;3721;44.490;11.220;2022-10-31T01:07:29;17.40;93.00
7362;DHT22;3721;44.490;11.220;2022-10-31T01:09:55;17.40;93.10
7362;DHT22;3721;44.490;11.220;2022-10-31T01:12:20;17.40;93.10
7362;DHT22;3721;44.490;11.220;2022-10-31T01:14:46;17.30;92.90
7362;DHT22;3721;44.490;11.220;2022-10-31T01:17:12;17.30;93.00
7362;DHT22;3721;44.490;11.220;2022-10-31T01:19:38;17.30;93.00
7362;DHT22;3721;44.490;11.220;2022-10-31T01:22:04;17.30;92.90
7362;DHT22;3721;44.490;11.220;2022-10-31T01:24:30;17.20;92.90
7362;DHT22;3721;44.490;11.220;2022-10-31T01:26:55;17.20;92.90
7362;DHT22;3721;44.490;11.220;2022-10-31T01:29:21;17.20;93.00
7362;DHT22;3721;44.490;11.220;2022-10-31T01:31:46;17.20;93.10
7362;DHT22;3721;44.490;11.220;2022-10-31T01:34:14;17.20;93.10
7362;DHT22;3721;44.490;11.220;2022-10-31T01:36:40;17.20;93.20
7362;DHT22;3721;44.490;11.220;2022-10-31T01:39:12;17.20;93.30
7362;DHT22;3721;44.490;11.220;2022-10-31T01:41:50;17.20;93.30
7362;DHT22;3721;44.490;11.220;2022-10-31T01:46:50;17.30;93.40
7362;DHT22;3721;44.490;11.220;2022-10-31T01:51:59;17.30;93.40
7362;DHT22;3721;44.490;11.220;2022-10-31T01:54:30;17.20;93.40
7362;DHT22;3721;44.490;11.220;2022-10-31T01:56:59;17.30;93.40
7362;DHT22;3721;44.490;11.220;2022-10-31T01:59:28;17.20;93.40
7362;DHT22;3721;44.490;11.220;2022-10-31T02:01:55;17.20;93.30
7362;DHT22;3721;44.490;11.220;2022-10-31T02:04:23;17.20;93.40
7362;DHT22;3721;44.490;11.220;2022-10-31T02:06:59;17.20;93.50
7362;DHT22;3721;44.490;11.220;2022-10-31T02:09:29;17.20;93.40
7362;DHT22;3721;44.490;11.220;2022-10-31T02:11:57;17.20;93.40
7362;DHT22;3721;44.490;11.220;2022-10-31T02:14:26;17.20;93.40
7362;DHT22;3721;44.490;11.220;2022-10-31T02:16:54;17.20;93.50
7362;DHT22;3721;44.490;11.220;2022-10-31T02:19:37;17.20;93.50
7362;DHT22;3721;44.490;11.220;2022-10-31T02:22:23;17.20;93.50
7362;DHT22;3721;44.490;11.220;2022-10-31T02:28:14;17.20;93.60
7362;DHT22;3721;44.490;11.220;2022-10-31T02:41:01;17.20;93.70
7362;DHT22;3721;44.490;11.220;2022-10-31T02:46:14;17.20;93.70
7362;DHT22;3721;44.490;11.220;2022-10-31T02:48:44;17.20;93.70
7362;DHT22;3721;44.490;11.220;2022-10-31T02:51:11;17.20;93.80
7362;DHT22;3721;44.490;11.220;2022-10-31T02:53:38;17.20;93.80
7362;DHT22;3721;44.490;11.220;2022-10-31T02:56:12;17.20;93.80
7362;DHT22;3721;44.490;11.220;2022-10-31T02:58:47;17.20;93.80
7362;DHT22;3721;44.490;11.220;2022-10-31T03:07:07;17.20;93.70
7362;DHT22;3721;44.490;11.220;2022-10-31T03:09:59;17.10;93.70
7362;DHT22;3721;44.490;11.220;2022-10-31T03:12:28;17.10;93.60
7362;DHT22;3721;44.490;11.220;2022-10-31T03:18:00;17.10;93.60
7362;DHT22;3721;44.490;11.220;2022-10-31T03:20:33;17.10;93.60
7362;DHT22;3721;44.490;11.220;2022-10-31T03:23:01;17.00;93.50
7362;DHT22;3721;44.490;11.220;2022-10-31T03:25:29;17.00;93.50
7362;DHT22;3721;44.490;11.220;2022-10-31T03:27:57;17.00;93.50
7362;DHT22;3721;44.490;11.220;2022-10-31T03:30:24;16.90;93.40
7362;DHT22;3721;44.490;11.220;2022-10-31T03:32:55;16.90;93.40
7362;DHT22;3721;44.490;11.220;2022-10-31T03:35:24;16.80;93.40
7362;DHT22;3721;44.490;11.220;2022-10-31T03:37:53;16.80;93.40
7362;DHT22;3721;44.490;11.220;2022-10-31T03:40:21;16.80;93.50
7362;DHT22;3721;44.490;11.220;2022-10-31T03:42:54;16.80;93.50
7362;DHT22;3721;44.490;11.220;2022-10-31T03:45:24;16.80;93.50
7362;DHT22;3721;44.490;11.220;2022-10-31T03:47:52;16.80;93.50
7362;DHT22;3721;44.490;11.220;2022-10-31T03:50:18;16.80;93.60
7362;DHT22;3721;44.490;11.220;2022-10-31T03:52:48;16.80;93.60
7362;DHT22;3721;44.490;11.220;2022-10-31T03:55:26;16.90;93.60
7362;DHT22;3721;44.490;11.220;2022-10-31T03:58:12;16.90;93.60
7362;DHT22;3721;44.490;11.220;2022-10-31T04:00:41;16.90;93.60
7362;DHT22;3721;44.490;11.220;2022-10-31T04:03:31;16.90;93.60
7362;DHT22;3721;44.490;11.220;2022-10-31T04:06:04;16.90;93.70
7362;DHT22;3721;44.490;11.220;2022-10-31T04:08:32;16.90;93.60
7362;DHT22;3721;44.490;11.220;2022-10-31T04:11:00;16.90;93.60
7362;DHT22;3721;44.490;11.220;2022-10-31T04:13:31;16.90;93.60
7362;DHT22;3721;44.490;11.220;2022-10-31T04:15:59;16.80;93.60
7362;DHT22;3721;44.490;11.220;2022-10-31T04:18:25;16.80;93.60
7362;DHT22;3721;44.490;11.220;2022-10-31T04:21:00;16.80;93.60
7362;DHT22;3721;44.490;11.220;2022-10-31T04:23:26;16.80;93.60
7362;DHT22;3721;44.490;11.220;2022-10-31T04:25:52;16.80;93.60
7362;DHT22;3721;44.490;11.220;2022-10-31T04:28:18;16.80;93.60
7362;DHT22;3721;44.490;11.220;2022-10-31T04:30:44;16.80;93.60
7362;DHT22;3721;44.490;11.220;2022-10-31T04:33:10;16.80;93.60
7362;DHT22;3721;44.490;11.220;2022-10-31T04:35:35;16.80;93.60
7362;DHT22;3721;44.490;11.220;2022-10-31T04:38:01;16.80;93.50
7362;DHT22;3721;44.490;11.220;2022-10-31T04:40:27;16.80;93.50
7362;DHT22;3721;44.490;11.220;2022-10-31T04:42:52;16.70;93.50
7362;DHT22;3721;44.490;11.220;2022-10-31T04:45:18;16.70;93.50
7362;DHT22;3721;44.490;11.220;2022-10-31T04:47:43;16.70;93.60
7362;DHT22;3721;44.490;11.220;2022-10-31T04:50:09;16.70;93.60
7362;DHT22;3721;44.490;11.220;2022-10-31T04:52:42;16.70;93.60
7362;DHT22;3721;44.490;11.220;2022-10-31T04:55:09;16.70;93.60
7362;DHT22;3721;44.490;11.220;2022-10-31T04:57:45;16.70;93.60
7362;DHT22;3721;44.490;11.220;2022-10-31T05:00:12;16.70;93.60
7362;DHT22;3721;44.490;11.220;2022-10-31T05:02:45;16.70;93.60
7362;DHT22;3721;44.490;11.220;2022-10-31T05:05:13;16.70;93.60
7362;DHT22;3721;44.490;11.220;2022-10-31T05:07:40;16.70;93.50
7362;DHT22;3721;44.490;11.220;2022-10-31T05:10:06;16.60;93.40
7362;DHT22;3721;44.490;11.220;2022-10-31T05:12:32;16.60;93.40
7362;DHT22;3721;44.490;11.220;2022-10-31T05:14:58;16.60;93.40
7362;DHT22;3721;44.490;11.220;2022-10-31T05:17:23;16.50;93.30
7362;DHT22;3721;44.490;11.220;2022-10-31T05:19:49;16.50;93.30
7362;DHT22;3721;44.490;11.220;2022-10-31T05:22:15;16.50;93.60
7362;DHT22;3721;44.490;11.220;2022-10-31T05:24:40;16.50;93.40
7362;DHT22;3721;44.490;11.220;2022-10-31T05:27:06;16.50;93.40
7362;DHT22;3721;44.490;11.220;2022-10-31T05:29:31;16.50;93.40
7362;DHT22;3721;44.490;11.220;2022-10-31T05:31:59;16.50;93.40
7362;DHT22;3721;44.490;11.220;2022-10-31T05:34:24;16.50;93.40
7362;DHT22;3721;44.490;11.220;2022-10-31T05:36:50;16.40;93.30
7362;DHT22;3721;44.490;11.220;2022-10-31T05:39:16;16.40;93.30
7362;DHT22;3721;44.490;11.220;2022-10-31T05:41:41;16.40;93.30
7362;DHT22;3721;44.490;11.220;2022-10-31T05:44:07;16.40;93.30
7362;DHT22;3721;44.490;11.220;2022-10-31T05:46:33;16.40;93.30
7362;DHT22;3721;44.490;11.220;2022-10-31T05:48:58;16.40;93.30
7362;DHT22;3721;44.490;11.220;2022-10-31T05:51:24;16.30;93.10
7362;DHT22;3721;44.490;11.220;2022-10-31T05:53:50;16.30;93.20
7362;DHT22;3721;44.490;11.220;2022-10-31T05:56:15;16.30;93.30
7362;DHT22;3721;44.490;11.220;2022-10-31T05:58:41;16.20;93.40
7362;DHT22;3721;44.490;11.220;2022-10-31T06:01:07;16.20;93.40
7362;DHT22;3721;44.490;11.220;2022-10-31T06:03:32;16.30;93.50
7362;DHT22;3721;44.490;11.220;2022-10-31T06:05:58;16.30;93.50
7362;DHT22;3721;44.490;11.220;2022-10-31T06:08:23;16.30;93.50
7362;DHT22;3721;44.490;11.220;2022-10-31T06:10:49;16.30;93.40
7362;DHT22;3721;44.490;11.220;2022-10-31T06:13:15;16.30;93.50
7362;DHT22;3721;44.490;11.220;2022-10-31T06:15:41;16.30;93.50
7362;DHT22;3721;44.490;11.220;2022-10-31T06:18:08;16.40;93.60
7362;DHT22;3721;44.490;11.220;2022-10-31T06:20:34;16.40;93.60
7362;DHT22;3721;44.490;11.220;2022-10-31T06:23:00;16.40;93.60
7362;DHT22;3721;44.490;11.220;2022-10-31T06:25:27;16.50;93.60
7362;DHT22;3721;44.490;11.220;2022-10-31T06:27:52;16.50;93.60
7362;DHT22;3721;44.490;11.220;2022-10-31T06:30:18;16.50;93.70
7362;DHT22;3721;44.490;11.220;2022-10-31T06:32:44;16.50;93.60
7362;DHT22;3721;44.490;11.220;2022-10-31T06:35:10;16.50;93.60
7362;DHT22;3721;44.490;11.220;2022-10-31T06:37:36;16.60;93.50
7362;DHT22;3721;44.490;11.220;2022-10-31T06:40:02;16.60;93.50
7362;DHT22;3721;44.490;11.220;2022-10-31T06:42:28;16.60;93.50
7362;DHT22;3721;44.490;11.220;2022-10-31T06:44:54;16.60;93.60
7362;DHT22;3721;44.490;11.220;2022-10-31T06:47:19;16.60;93.60
7362;DHT22;3721;44.490;11.220;2022-10-31T06:49:45;16.70;93.60
7362;DHT22;3721;44.490;11.220;2022-10-31T06:52:10;16.70;93.60
7362;DHT22;3721;44.490;11.220;2022-10-31T06:54:36;16.70;93.60
7362;DHT22;3721;44.490;11.220;2022-10-31T06:57:02;16.80;93.70
7362;DHT22;3721;44.490;11.220;2022-10-31T06:59:27;16.80;93.70
7362;DHT22;3721;44.490;11.220;2022-10-31T07:01:53;16.80;93.60
7362;DHT22;3721;44.490;11.220;2022-10-31T07:04:19;16.80;93.50
7362;DHT22;3721;44.490;11.220;2022-10-31T07:06:44;16.90;93.40
7362;DHT22;3721;44.490;11.220;2022-10-31T07:09:10;16.80;93.10
7362;DHT22;3721;44.490;11.220;2022-10-31T07:11:36;16.80;93.00
7362;DHT22;3721;44.490;11.220;2022-10-31T07:14:01;16.70;92.90
7362;DHT22;3721;44.490;11.220;2022-10-31T07:16:27;16.70;93.00
7362;DHT22;3721;44.490;11.220;2022-10-31T07:18:53;16.70;92.90
7362;DHT22;3721;44.490;11.220;2022-10-31T07:21:19;16.70;93.00
7362;DHT22;3721;44.490;11.220;2022-10-31T07:23:47;16.70;93.00
7362;DHT22;3721;44.490;11.220;2022-10-31T07:26:13;16.80;93.20
7362;DHT22;3721;44.490;11.220;2022-10-31T07:28:39;16.90;93.20
7362;DHT22;3721;44.490;11.220;2022-10-31T07:31:04;17.00;93.20
7362;DHT22;3721;44.490;11.220;2022-10-31T07:33:30;17.10;93.30
7362;DHT22;3721;44.490;11.220;2022-10-31T07:35:56;17.10;93.40
7362;DHT22;3721;44.490;11.220;2022-10-31T07:38:21;17.20;93.40
7362;DHT22;3721;44.490;11.220;2022-10-31T07:40:50;17.30;93.60
7362;DHT22;3721;44.490;11.220;2022-10-31T07:43:17;17.30;93.60
7362;DHT22;3721;44.490;11.220;2022-10-31T07:45:43;17.40;93.70
7362;DHT22;3721;44.490;11.220;2022-10-31T07:48:09;17.40;93.70
7362;DHT22;3721;44.490;11.220;2022-10-31T07:50:34;17.50;93.80
7362;DHT22;3721;44.490;11.220;2022-10-31T07:53:18;17.60;93.90
7362;DHT22;3721;44.490;11.220;2022-10-31T07:55:44;17.70;93.90
7362;DHT22;3721;44.490;11.220;2022-10-31T07:58:12;17.70;93.90
7362;DHT22;3721;44.490;11.220;2022-10-31T08:00:40;17.80;94.00
7362;DHT22;3721;44.490;11.220;2022-10-31T08:03:14;17.80;94.00
7362;DHT22;3721;44.490;11.220;2022-10-31T08:05:41;17.90;94.00
7362;DHT22;3721;44.490;11.220;2022-10-31T08:08:07;17.90;94.10
7362;DHT22;3721;44.490;11.220;2022-10-31T08:10:34;18.00;94.10
7362;DHT22;3721;44.490;11.220;2022-10-31T08:13:02;18.00;94.10
7362;DHT22;3721;44.490;11.220;2022-10-31T08:15:29;18.10;94.20
7362;DHT22;3721;44.490;11.220;2022-10-31T08:17:55;18.10;94.20
7362;DHT22;3721;44.490;11.220;2022-10-31T08:20:21;18.20;94.20
7362;DHT22;3721;44.490;11.220;2022-10-31T08:22:57;18.20;94.20
7362;DHT22;3721;44.490;11.220;2022-10-31T08:25:24;18.30;94.10
7362;DHT22;3721;44.490;11.220;2022-10-31T08:27:52;18.30;94.10
7362;DHT22;3721;44.490;11.220;2022-10-31T08:30:22;18.40;94.10
7362;DHT22;3721;44.490;11.220;2022-10-31T08:33:18;18.40;94.10
7362;DHT22;3721;44.490;11.220;2022-10-31T08:35:43;18.50;94.10
7362;DHT22;3721;44.490;11.220;2022-10-31T08:38:10;18.50;94.00
7362;DHT22;3721;44.490;11.220;2022-10-31T08:40:36;18.60;94.00
7362;DHT22;3721;44.490;11.220;2022-10-31T08:43:05;18.60;93.90
7362;DHT22;3721;44.490;11.220;2022-10-31T08:45:32;18.70;93.80
7362;DHT22;3721;44.490;11.220;2022-10-31T08:48:03;18.70;93.60
7362;DHT22;3721;44.490;11.220;2022-10-31T08:50:31;18.70;93.50
7362;DHT22;3721;44.490;11.220;2022-10-31T08:53:02;18.70;93.40
7362;DHT22;3721;44.490;11.220;2022-10-31T08:55:27;18.70;93.30
7362;DHT22;3721;44.490;11.220;2022-10-31T08:57:57;18.70;93.20
7362;DHT22;3721;44.490;11.220;2022-10-31T09:00:23;18.80;93.30
7362;DHT22;3721;44.490;11.220;2022-10-31T09:02:57;18.80;93.30
7362;DHT22;3721;44.490;11.220;2022-10-31T09:05:24;18.90;93.10
7362;DHT22;3721;44.490;11.220;2022-10-31T09:07:49;18.90;93.10
7362;DHT22;3721;44.490;11.220;2022-10-31T09:10:15;19.00;93.00
7362;DHT22;3721;44.490;11.220;2022-10-31T09:12:41;19.00;92.90
7362;DHT22;3721;44.490;11.220;2022-10-31T09:15:07;19.10;92.90
7362;DHT22;3721;44.490;11.220;2022-10-31T09:17:33;19.20;92.90
7362;DHT22;3721;44.490;11.220;2022-10-31T09:19:59;19.20;92.90
7362;DHT22;3721;44.490;11.220;2022-10-31T09:22:24;19.20;92.70
7362;DHT22;3721;44.490;11.220;2022-10-31T09:24:50;19.30;92.60
7362;DHT22;3721;44.490;11.220;2022-10-31T09:27:16;19.30;92.40
7362;DHT22;3721;44.490;11.220;2022-10-31T09:29:41;19.30;92.30
7362;DHT22;3721;44.490;11.220;2022-10-31T09:32:07;19.30;92.20
7362;DHT22;3721;44.490;11.220;2022-10-31T09:34:32;19.40;92.30
7362;DHT22;3721;44.490;11.220;2022-10-31T09:36:58;19.40;92.30
7362;DHT22;3721;44.490;11.220;2022-10-31T09:39:24;19.40;92.20
7362;DHT22;3721;44.490;11.220;2022-10-31T09:47:37;19.60;92.30
7362;DHT22;3721;44.490;11.220;2022-10-31T09:52:41;19.70;92.30
7362;DHT22;3721;44.490;11.220;2022-10-31T09:57:42;19.80;92.30
7362;DHT22;3721;44.490;11.220;2022-10-31T10:00:15;19.80;92.30
7362;DHT22;3721;44.490;11.220;2022-10-31T10:05:19;20.00;92.10
7362;DHT22;3721;44.490;11.220;2022-10-31T10:13:32;20.10;91.80
7362;DHT22;3721;44.490;11.220;2022-10-31T10:24:30;20.20;91.60
7362;DHT22;3721;44.490;11.220;2022-10-31T10:33:27;20.40;91.40
7362;DHT22;3721;44.490;11.220;2022-10-31T10:35:58;20.40;91.30
7362;DHT22;3721;44.490;11.220;2022-10-31T10:41:07;20.50;91.30
7362;DHT22;3721;44.490;11.220;2022-10-31T10:43:38;20.50;91.20
7362;DHT22;3721;44.490;11.220;2022-10-31T10:49:35;20.60;91.20
7362;DHT22;3721;44.490;11.220;2022-10-31T10:59:52;20.80;91.20
7362;DHT22;3721;44.490;11.220;2022-10-31T11:02:23;20.80;91.20
7362;DHT22;3721;44.490;11.220;2022-10-31T11:04:54;20.80;91.20
7362;DHT22;3721;44.490;11.220;2022-10-31T11:07:21;20.80;91.20
7362;DHT22;3721;44.490;11.220;2022-10-31T11:09:47;20.90;91.20
7362;DHT22;3721;44.490;11.220;2022-10-31T11:14:47;20.90;91.00
7362;DHT22;3721;44.490;11.220;2022-10-31T11:17:26;21.00;90.90
7362;DHT22;3721;44.490;11.220;2022-10-31T11:22:43;21.10;90.90
7362;DHT22;3721;44.490;11.220;2022-10-31T11:27:51;21.10;91.00
7362;DHT22;3721;44.490;11.220;2022-10-31T11:30:23;21.10;91.00
7362;DHT22;3721;44.490;11.220;2022-10-31T11:32:50;21.10;90.90
7362;DHT22;3721;44.490;11.220;2022-10-31T11:35:18;21.10;90.80
7362;DHT22;3721;44.490;11.220;2022-10-31T11:37:46;21.10;90.80
7362;DHT22;3721;44.490;11.220;2022-10-31T11:40:21;21.10;90.80
7362;DHT22;3721;44.490;11.220;2022-10-31T11:42:48;21.20;90.90
7362;DHT22;3721;44.490;11.220;2022-10-31T11:45:19;21.20;90.90
7362;DHT22;3721;44.490;11.220;2022-10-31T11:47:53;21.20;90.90
7362;DHT22;3721;44.490;11.220;2022-10-31T11:52:55;21.30;91.00
7362;DHT22;3721;44.490;11.220;2022-10-31T11:55:36;21.30;91.00
7362;DHT22;3721;44.490;11.220;2022-10-31T11:58:03;21.30;91.00
7362;DHT22;3721;44.490;11.220;2022-10-31T12:00:39;21.40;91.10
7362;DHT22;3721;44.490;11.220;2022-10-31T12:06:00;21.50;91.10
7362;DHT22;3721;44.490;11.220;2022-10-31T12:08:31;21.50;91.10
7362;DHT22;3721;44.490;11.220;2022-10-31T12:19:31;21.70;91.10
7362;DHT22;3721;44.490;11.220;2022-10-31T12:25:12;21.80;91.00
7362;DHT22;3721;44.490;11.220;2022-10-31T12:51:01;22.00;90.80
7362;DHT22;3721;44.490;11.220;2022-10-31T12:54:01;22.10;90.80
7362;DHT22;3721;44.490;11.220;2022-10-31T13:00:07;22.10;90.80
7362;DHT22;3721;44.490;11.220;2022-10-31T13:02:44;22.10;90.70
7362;DHT22;3721;44.490;11.220;2022-10-31T13:08:05;22.10;90.60
7362;DHT22;3721;44.490;11.220;2022-10-31T13:10:40;22.20;90.60
7362;DHT22;3721;44.490;11.220;2022-10-31T13:13:19;22.10;90.60
7362;DHT22;3721;44.490;11.220;2022-10-31T13:15:55;22.20;90.60
7362;DHT22;3721;44.490;11.220;2022-10-31T13:18:35;22.20;90.60
7362;DHT22;3721;44.490;11.220;2022-10-31T13:21:09;22.20;90.60
7362;DHT22;3721;44.490;11.220;2022-10-31T13:23:37;22.20;90.70
7362;DHT22;3721;44.490;11.220;2022-10-31T13:28:57;22.30;90.70
7362;DHT22;3721;44.490;11.220;2022-10-31T13:31:25;22.30;90.60
7362;DHT22;3721;44.490;11.220;2022-10-31T13:33:57;22.30;90.60
7362;DHT22;3721;44.490;11.220;2022-10-31T13:37:15;22.40;90.60
7362;DHT22;3721;44.490;11.220;2022-10-31T13:45:16;22.50;90.30
7362;DHT22;3721;44.490;11.220;2022-10-31T13:47:42;22.40;90.30
7362;DHT22;3721;44.490;11.220;2022-10-31T13:50:23;22.50;90.40
7362;DHT22;3721;44.490;11.220;2022-10-31T13:52:49;22.40;90.30
7362;DHT22;3721;44.490;11.220;2022-10-31T13:55:35;22.40;90.40
7362;DHT22;3721;44.490;11.220;2022-10-31T13:58:04;22.50;90.40
7362;DHT22;3721;44.490;11.220;2022-10-31T14:00:30;22.50;90.40
7362;DHT22;3721;44.490;11.220;2022-10-31T14:03:00;22.50;90.40
7362;DHT22;3721;44.490;11.220;2022-10-31T14:05:29;22.50;90.50
7362;DHT22;3721;44.490;11.220;2022-10-31T14:07:58;22.50;90.40
7362;DHT22;3721;44.490;11.220;2022-10-31T14:10:31;22.50;90.40
7362;DHT22;3721;44.490;11.220;2022-10-31T14:13:13;22.50;90.40
7362;DHT22;3721;44.490;11.220;2022-10-31T14:15:50;22.50;90.40
7362;DHT22;3721;44.490;11.220;2022-10-31T14:18:38;22.50;90.30
7362;DHT22;3721;44.490;11.220;2022-10-31T14:23:49;22.60;90.40
7362;DHT22;3721;44.490;11.220;2022-10-31T14:26:29;22.60;90.30
7362;DHT22;3721;44.490;11.220;2022-10-31T14:29:39;22.60;90.30
7362;DHT22;3721;44.490;11.220;2022-10-31T14:34:34;22.60;90.10
7362;DHT22;3721;44.490;11.220;2022-10-31T14:50:52;22.70;90.10
7362;DHT22;3721;44.490;11.220;2022-10-31T14:55:52;22.80;90.10
7362;DHT22;3721;44.490;11.220;2022-10-31T14:58:41;22.70;90.00
7362;DHT22;3721;44.490;11.220;2022-10-31T15:03:48;22.70;90.00
7362;DHT22;3721;44.490;11.220;2022-10-31T15:06:17;22.80;90.00
7362;DHT22;3721;44.490;11.220;2022-10-31T15:08:50;22.80;90.00
7362;DHT22;3721;44.490;11.220;2022-10-31T15:13:55;22.80;89.90
7362;DHT22;3721;44.490;11.220;2022-10-31T15:16:24;22.80;89.80
7362;DHT22;3721;44.490;11.220;2022-10-31T15:19:05;22.80;89.70
7362;DHT22;3721;44.490;11.220;2022-10-31T15:21:33;22.70;89.50
7362;DHT22;3721;44.490;11.220;2022-10-31T15:24:01;22.70;89.60
7362;DHT22;3721;44.490;11.220;2022-10-31T15:26:34;22.70;90.10
7362;DHT22;3721;44.490;11.220;2022-10-31T15:29:12;22.60;89.60
7362;DHT22;3721;44.490;11.220;2022-10-31T15:31:38;22.60;89.50
7362;DHT22;3721;44.490;11.220;2022-10-31T15:34:11;22.50;89.50
7362;DHT22;3721;44.490;11.220;2022-10-31T15:36:39;22.50;89.50
7362;DHT22;3721;44.490;11.220;2022-10-31T15:39:11;22.50;89.60
7362;DHT22;3721;44.490;11.220;2022-10-31T15:41:51;22.40;89.50
7362;DHT22;3721;44.490;11.220;2022-10-31T15:44:28;22.40;89.60
7362;DHT22;3721;44.490;11.220;2022-10-31T15:47:02;22.40;89.70
7362;DHT22;3721;44.490;11.220;2022-10-31T15:49:38;22.40;89.30
7362;DHT22;3721;44.490;11.220;2022-10-31T15:54:56;22.30;89.60
7362;DHT22;3721;44.490;11.220;2022-10-31T15:57:24;22.20;89.60
7362;DHT22;3721;44.490;11.220;2022-10-31T15:59:52;22.20;89.70
7362;DHT22;3721;44.490;11.220;2022-10-31T16:02:23;22.10;89.70
7362;DHT22;3721;44.490;11.220;2022-10-31T16:04:58;22.10;89.70
7362;DHT22;3721;44.490;11.220;2022-10-31T16:07:26;22.10;89.80
7362;DHT22;3721;44.490;11.220;2022-10-31T16:12:23;22.00;89.90
7362;DHT22;3721;44.490;11.220;2022-10-31T16:14:54;21.90;89.90
7362;DHT22;3721;44.490;11.220;2022-10-31T16:17:22;21.80;89.90
7362;DHT22;3721;44.490;11.220;2022-10-31T16:20:02;21.80;90.00
7362;DHT22;3721;44.490;11.220;2022-10-31T16:22:32;21.70;90.00
7362;DHT22;3721;44.490;11.220;2022-10-31T16:25:16;21.70;90.10
7362;DHT22;3721;44.490;11.220;2022-10-31T16:27:54;21.60;90.00
7362;DHT22;3721;44.490;11.220;2022-10-31T16:30:42;21.50;90.00
7362;DHT22;3721;44.490;11.220;2022-10-31T16:35:51;21.40;90.10
7362;DHT22;3721;44.490;11.220;2022-10-31T16:38:17;21.40;90.10
7362;DHT22;3721;44.490;11.220;2022-10-31T16:40:43;21.30;90.10
7362;DHT22;3721;44.490;11.220;2022-10-31T16:43:14;21.30;90.10
7362;DHT22;3721;44.490;11.220;2022-10-31T16:45:45;21.20;90.20
7362;DHT22;3721;44.490;11.220;2022-10-31T16:48:14;21.20;90.20
7362;DHT22;3721;44.490;11.220;2022-10-31T16:50:42;21.10;90.20
7362;DHT22;3721;44.490;11.220;2022-10-31T16:53:09;21.10;90.20
7362;DHT22;3721;44.490;11.220;2022-10-31T16:55:57;21.00;90.30
7362;DHT22;3721;44.490;11.220;2022-10-31T16:58:28;21.00;90.30
7362;DHT22;3721;44.490;11.220;2022-10-31T17:00:55;20.90;90.30
7362;DHT22;3721;44.490;11.220;2022-10-31T17:03:21;20.90;90.40
7362;DHT22;3721;44.490;11.220;2022-10-31T17:05:47;20.90;90.40
7362;DHT22;3721;44.490;11.220;2022-10-31T17:08:13;20.80;90.40
7362;DHT22;3721;44.490;11.220;2022-10-31T17:10:39;20.80;90.40
7362;DHT22;3721;44.490;11.220;2022-10-31T17:13:08;20.70;90.40
7362;DHT22;3721;44.490;11.220;2022-10-31T17:15:42;20.70;90.40
7362;DHT22;3721;44.490;11.220;2022-10-31T17:18:13;20.60;90.40
7362;DHT22;3721;44.490;11.220;2022-10-31T17:20:39;20.60;90.40
7362;DHT22;3721;44.490;11.220;2022-10-31T17:23:05;20.60;90.50
7362;DHT22;3721;44.490;11.220;2022-10-31T17:25:31;20.60;90.50
7362;DHT22;3721;44.490;11.220;2022-10-31T17:27:57;20.50;90.50
7362;DHT22;3721;44.490;11.220;2022-10-31T17:30:24;20.50;90.50
7362;DHT22;3721;44.490;11.220;2022-10-31T17:32:50;20.50;90.60
7362;DHT22;3721;44.490;11.220;2022-10-31T17:35:17;20.50;90.60
7362;DHT22;3721;44.490;11.220;2022-10-31T17:37:44;20.40;90.60
7362;DHT22;3721;44.490;11.220;2022-10-31T17:40:18;20.40;90.60
7362;DHT22;3721;44.490;11.220;2022-10-31T17:42:51;20.40;90.60
7362;DHT22;3721;44.490;11.220;2022-10-31T17:45:18;20.40;90.60
7362;DHT22;3721;44.490;11.220;2022-10-31T17:47:46;20.40;90.70
7362;DHT22;3721;44.490;11.220;2022-10-31T17:50:13;20.40;90.70
7362;DHT22;3721;44.490;11.220;2022-10-31T17:52:38;20.40;90.70
7362;DHT22;3721;44.490;11.220;2022-10-31T17:55:04;20.30;90.70
7362;DHT22;3721;44.490;11.220;2022-10-31T17:57:34;20.30;90.70
7362;DHT22;3721;44.490;11.220;2022-10-31T18:00:00;20.30;90.70
7362;DHT22;3721;44.490;11.220;2022-10-31T18:02:26;20.20;90.70
7362;DHT22;3721;44.490;11.220;2022-10-31T18:04:52;20.20;90.70
7362;DHT22;3721;44.490;11.220;2022-10-31T18:07:17;20.20;90.70
7362;DHT22;3721;44.490;11.220;2022-10-31T18:09:48;20.20;90.70
7362;DHT22;3721;44.490;11.220;2022-10-31T18:12:14;20.10;90.70
7362;DHT22;3721;44.490;11.220;2022-10-31T18:14:42;20.10;90.80
7362;DHT22;3721;44.490;11.220;2022-10-31T18:17:07;20.10;90.80
7362;DHT22;3721;44.490;11.220;2022-10-31T18:19:33;20.00;90.80
7362;DHT22;3721;44.490;11.220;2022-10-31T18:22:00;20.00;90.80
7362;DHT22;3721;44.490;11.220;2022-10-31T18:24:25;20.00;91.10
7362;DHT22;3721;44.490;11.220;2022-10-31T18:26:53;20.00;90.90
7362;DHT22;3721;44.490;11.220;2022-10-31T18:29:18;19.90;90.90
7362;DHT22;3721;44.490;11.220;2022-10-31T18:31:44;19.90;91.00
7362;DHT22;3721;44.490;11.220;2022-10-31T18:34:14;19.90;91.10
7362;DHT22;3721;44.490;11.220;2022-10-31T18:36:39;19.80;91.00
7362;DHT22;3721;44.490;11.220;2022-10-31T18:39:05;19.80;91.00
7362;DHT22;3721;44.490;11.220;2022-10-31T18:41:31;19.80;90.90
7362;DHT22;3721;44.490;11.220;2022-10-31T18:43:57;19.80;90.90
7362;DHT22;3721;44.490;11.220;2022-10-31T18:46:25;19.80;90.90
7362;DHT22;3721;44.490;11.220;2022-10-31T18:48:51;19.80;90.90
7362;DHT22;3721;44.490;11.220;2022-10-31T18:51:17;19.80;90.90
7362;DHT22;3721;44.490;11.220;2022-10-31T18:53:53;19.80;90.80